Time;durP1;ratioP1;P1;durP2;ratioP2;P2;SDS_P1;SDS_P2;PMS_P1;PMS_P2;Temp;Humidity;BMP_temperature;BMP_pressure;BME280_temperature;BME280_humidity;BME280_pressure;Samples;Min_cycle;Max_cycle;Signal;HPM_P1;HPM_P2
2022/02/19 00:00:51;;;;;;;7.75;3.30;;;10.20;90.90;;;;;;5106721;28;20686;-65
2022/02/19 00:03:18;;;;;;;3.53;2.30;;;10.20;91.00;;;;;;5107041;28;20219;-64
2022/02/19 00:05:44;;;;;;;4.80;3.08;;;10.20;90.50;;;;;;5100065;28;20231;-66
2022/02/19 00:08:13;;;;;;;7.80;3.97;;;10.20;89.70;;;;;;5113158;28;20928;-64
2022/02/19 00:10:40;;;;;;;9.05;4.55;;;10.20;90.10;;;;;;5112307;27;20258;-65
2022/02/19 00:13:07;;;;;;;7.35;4.47;;;10.30;90.10;;;;;;5113487;28;20315;-65
2022/02/19 00:15:34;;;;;;;5.60;3.58;;;10.30;89.40;;;;;;5100075;28;20237;-65
2022/02/19 00:18:01;;;;;;;5.38;2.67;;;10.30;89.20;;;;;;5100644;28;20224;-65
2022/02/19 00:20:30;;;;;;;7.82;3.28;;;10.30;88.30;;;;;;5106672;28;20716;-64
2022/02/19 00:22:57;;;;;;;4.63;2.10;;;10.40;88.40;;;;;;5105724;27;20223;-65
2022/02/19 00:25:26;;;;;;;8.50;4.35;;;10.30;88.00;;;;;;5100090;28;20227;-64
2022/02/19 00:27:53;;;;;;;6.05;3.00;;;10.20;88.60;;;;;;5112932;27;20223;-64
2022/02/19 00:30:20;;;;;;;4.32;2.22;;;10.20;89.10;;;;;;5106144;28;20239;-64
2022/02/19 00:32:47;;;;;;;6.85;2.92;;;10.20;89.30;;;;;;5106807;28;20226;-64
2022/02/19 00:35:18;;;;;;;6.10;2.40;;;10.20;90.20;;;;;;5112952;28;20642;-64
2022/02/19 00:37:45;;;;;;;2.80;2.00;;;10.20;90.40;;;;;;5099325;28;20231;-64
2022/02/19 00:40:13;;;;;;;6.68;2.17;;;10.20;90.10;;;;;;5104613;28;20270;-64
2022/02/19 00:42:41;;;;;;;3.38;1.77;;;10.20;89.90;;;;;;5112120;27;20227;-64
2022/02/19 00:45:08;;;;;;;6.00;4.88;;;10.20;90.10;;;;;;5103947;27;20220;-65
2022/02/19 00:47:35;;;;;;;9.13;2.15;;;10.10;89.10;;;;;;5106458;28;20540;-64
2022/02/19 00:50:02;;;;;;;5.88;3.67;;;10.10;89.20;;;;;;5101249;28;20296;-64
2022/02/19 00:52:29;;;;;;;5.32;2.03;;;10.10;88.80;;;;;;5099521;28;20292;-65
2022/02/19 00:54:56;;;;;;;15.80;8.38;;;10.10;88.90;;;;;;5103678;28;20223;-65
2022/02/19 00:57:22;;;;;;;7.55;2.63;;;10.00;89.90;;;;;;5106231;28;20230;-65
2022/02/19 00:59:50;;;;;;;6.25;4.28;;;10.00;89.10;;;;;;5102025;28;20215;-64
2022/02/19 01:02:18;;;;;;;4.70;3.40;;;10.00;88.90;;;;;;5105383;27;20230;-65
2022/02/19 01:04:44;;;;;;;11.20;4.05;;;9.90;89.40;;;;;;5104677;28;20242;-65
2022/02/19 01:07:11;;;;;;;14.18;3.45;;;9.90;89.60;;;;;;5112717;28;20237;-65
2022/02/19 01:09:38;;;;;;;13.02;7.15;;;10.00;87.60;;;;;;5106518;27;20227;-65
2022/02/19 01:12:06;;;;;;;10.35;6.45;;;10.00;87.60;;;;;;5112456;28;20568;-65
2022/02/19 01:14:33;;;;;;;7.95;3.85;;;9.90;87.00;;;;;;5099395;28;20222;-65
2022/02/19 01:17:01;;;;;;;9.82;3.95;;;9.90;86.10;;;;;;5102155;28;20228;-64
2022/02/19 01:19:28;;;;;;;8.48;2.75;;;9.80;86.50;;;;;;5106045;28;20237;-64
2022/02/19 01:21:55;;;;;;;9.30;5.32;;;9.80;85.40;;;;;;5103137;28;20227;-65
2022/02/19 01:24:22;;;;;;;15.13;7.10;;;9.80;85.90;;;;;;5098978;28;20556;-65
2022/02/19 01:26:48;;;;;;;7.07;3.30;;;9.80;85.20;;;;;;5112363;27;20691;-65
2022/02/19 01:29:15;;;;;;;7.20;4.00;;;9.80;84.60;;;;;;5112435;27;20235;-64
2022/02/19 01:31:42;;;;;;;7.60;3.42;;;9.90;84.50;;;;;;5100847;28;20255;-64
2022/02/19 01:34:12;;;;;;;11.43;10.00;;;9.90;83.20;;;;;;5101053;28;20227;-64
2022/02/19 01:36:39;;;;;;;8.75;3.38;;;9.80;82.80;;;;;;5116200;27;20235;-64
2022/02/19 01:39:06;;;;;;;6.10;2.85;;;9.80;82.30;;;;;;5102472;27;20223;-64
2022/02/19 01:41:32;;;;;;;7.40;2.78;;;9.80;81.70;;;;;;5103749;28;20574;-64
2022/02/19 01:44:05;;;;;;;7.35;4.43;;;9.90;81.70;;;;;;5115049;28;20676;-64
2022/02/19 01:46:32;;;;;;;5.30;2.25;;;9.90;82.20;;;;;;5102655;28;20544;-64
2022/02/19 01:48:59;;;;;;;10.68;6.15;;;9.90;80.40;;;;;;5109191;28;20224;-63
2022/02/19 01:51:31;;;;;;;19.95;10.82;;;9.90;80.00;;;;;;5109648;28;20249;-63
2022/02/19 01:54:01;;;;;;;5.00;2.92;;;9.90;79.80;;;;;;5104076;28;20231;-64
2022/02/19 01:56:29;;;;;;;11.45;5.75;;;10.00;77.40;;;;;;5102455;28;20250;-64
2022/02/19 01:58:56;;;;;;;12.93;9.60;;;10.00;77.20;;;;;;5107364;28;20220;-64
2022/02/19 02:01:23;;;;;;;10.55;6.95;;;9.90;78.50;;;;;;5110703;28;20219;-64
2022/02/19 02:03:50;;;;;;;10.38;6.15;;;9.90;78.00;;;;;;5113411;27;20239;-68
2022/02/19 02:06:19;;;;;;;7.07;3.83;;;9.90;76.90;;;;;;5111375;27;20218;-64
2022/02/19 02:08:47;;;;;;;7.35;3.28;;;9.90;76.60;;;;;;5109655;28;20223;-65
2022/02/19 02:11:15;;;;;;;8.13;3.88;;;9.80;75.90;;;;;;5115503;27;20241;-65
2022/02/19 02:13:42;;;;;;;9.25;3.63;;;9.80;75.70;;;;;;5106492;27;20224;-65
2022/02/19 02:16:08;;;;;;;9.05;5.93;;;9.80;75.70;;;;;;5108759;28;20669;-65
2022/02/19 02:18:35;;;;;;;5.55;2.90;;;9.90;76.00;;;;;;5106210;28;20223;-63
2022/02/19 02:21:02;;;;;;;13.80;5.85;;;9.90;75.40;;;;;;5102000;28;20343;-64
2022/02/19 02:23:31;;;;;;;17.08;7.70;;;9.90;75.90;;;;;;5105244;28;20295;-65
2022/02/19 02:26:01;;;;;;;10.90;4.57;;;9.90;75.90;;;;;;5113369;27;20219;-64
2022/02/19 02:28:28;;;;;;;14.55;6.50;;;9.90;75.50;;;;;;5115892;27;20215;-64
2022/02/19 02:30:55;;;;;;;7.97;3.55;;;9.80;75.00;;;;;;5114389;27;20622;-63
2022/02/19 02:33:23;;;;;;;7.50;4.85;;;9.80;74.50;;;;;;5113027;27;20211;-64
2022/02/19 02:35:51;;;;;;;7.57;5.22;;;9.70;74.40;;;;;;5113521;28;20219;-65
2022/02/19 02:38:19;;;;;;;8.38;3.80;;;9.70;75.00;;;;;;5100577;28;20220;-65
2022/02/19 02:40:47;;;;;;;8.10;4.30;;;9.80;75.10;;;;;;5107160;28;20224;-66
2022/02/19 02:43:14;;;;;;;7.93;5.38;;;9.70;74.10;;;;;;5106511;28;20227;-67
2022/02/19 02:45:41;;;;;;;8.80;4.50;;;9.80;73.90;;;;;;5099794;28;20245;-65
2022/02/19 02:48:08;;;;;;;4.88;2.67;;;9.70;74.40;;;;;;5099641;28;20224;-65
2022/02/19 02:50:35;;;;;;;9.80;5.60;;;9.70;73.30;;;;;;5106283;28;20227;-65
2022/02/19 02:53:01;;;;;;;12.85;8.43;;;9.70;73.30;;;;;;5106520;28;20222;-65
2022/02/19 02:55:28;;;;;;;11.25;5.88;;;9.80;73.40;;;;;;5100366;28;20223;-64
2022/02/19 02:57:57;;;;;;;7.03;4.72;;;9.80;72.30;;;;;;5099281;28;20239;-65
2022/02/19 03:00:24;;;;;;;12.13;8.10;;;9.90;72.20;;;;;;5104792;28;20250;-65
2022/02/19 03:02:51;;;;;;;6.90;5.10;;;9.80;72.90;;;;;;5109062;27;20215;-63
2022/02/19 03:05:18;;;;;;;4.85;3.03;;;9.80;72.40;;;;;;5109370;28;20227;-65
2022/02/19 03:07:45;;;;;;;7.63;2.25;;;9.80;71.50;;;;;;5109215;28;20593;-65
2022/02/19 03:10:16;;;;;;;6.90;5.05;;;9.70;71.00;;;;;;5114702;27;20223;-64
2022/02/19 03:12:43;;;;;;;7.03;3.15;;;9.70;72.30;;;;;;5113157;27;20230;-65
2022/02/19 03:15:18;;;;;;;10.13;7.05;;;9.70;72.60;;;;;;5103107;27;20218;-63
2022/02/19 03:17:45;;;;;;;10.15;6.15;;;9.60;71.90;;;;;;5101437;28;20691;-64
2022/02/19 03:20:15;;;;;;;10.98;6.40;;;9.60;72.30;;;;;;5103754;28;20303;-64
2022/02/19 03:22:42;;;;;;;6.00;3.38;;;9.60;72.10;;;;;;5108165;27;20704;-64
2022/02/19 03:25:09;;;;;;;3.80;2.92;;;9.50;72.20;;;;;;5105380;27;20226;-64
2022/02/19 03:27:45;;;;;;;10.93;6.22;;;9.50;71.80;;;;;;5114478;27;20302;-64
2022/02/19 03:30:18;;;;;;;12.60;7.32;;;9.60;72.40;;;;;;5114070;27;20242;-64
2022/02/19 03:32:48;;;;;;;7.25;3.20;;;9.60;72.70;;;;;;5101120;27;20219;-65
2022/02/19 03:35:18;;;;;;;9.02;4.55;;;9.50;72.20;;;;;;5114274;27;20672;-65
2022/02/19 03:37:48;;;;;;;10.43;3.53;;;9.40;72.80;;;;;;5105828;28;20682;-64
2022/02/19 03:40:15;;;;;;;12.82;7.30;;;9.50;72.60;;;;;;5106579;28;20303;-64
2022/02/19 03:42:51;;;;;;;5.90;2.70;;;9.40;73.30;;;;;;5103389;28;20699;-64
2022/02/19 03:45:20;;;;;;;9.20;5.60;;;9.50;72.60;;;;;;5102552;27;20222;-64
2022/02/19 03:47:46;;;;;;;5.97;2.83;;;9.40;72.20;;;;;;5114278;27;20219;-65
2022/02/19 03:50:17;;;;;;;7.45;4.07;;;9.50;73.00;;;;;;5100423;28;20230;-65
2022/02/19 03:52:45;;;;;;;8.52;6.10;;;9.40;72.40;;;;;;5113382;27;20245;-65
2022/02/19 03:55:12;;;;;;;7.13;4.53;;;9.30;72.50;;;;;;5100606;28;20239;-65
2022/02/19 03:57:39;;;;;;;6.18;4.13;;;9.40;72.90;;;;;;5100615;28;20226;-65
2022/02/19 04:00:13;;;;;;;7.93;2.30;;;9.30;73.20;;;;;;5105686;28;20228;-65
2022/02/19 04:02:43;;;;;;;6.07;3.40;;;9.40;72.90;;;;;;5109829;27;20259;-65
2022/02/19 04:05:12;;;;;;;4.68;2.75;;;9.40;73.00;;;;;;5109583;28;20315;-65
2022/02/19 04:07:39;;;;;;;5.60;3.42;;;9.40;73.40;;;;;;5110962;27;20223;-65
2022/02/19 04:10:08;;;;;;;6.20;3.25;;;9.30;73.10;;;;;;5113876;28;20672;-64
2022/02/19 04:12:35;;;;;;;5.82;3.28;;;9.40;73.10;;;;;;5108416;28;20547;-65
2022/02/19 04:15:02;;;;;;;7.45;4.10;;;9.30;74.40;;;;;;5105393;28;20218;-65
2022/02/19 04:17:30;;;;;;;5.20;3.03;;;9.30;74.20;;;;;;5099524;28;20233;-65
2022/02/19 04:19:59;;;;;;;9.10;4.45;;;9.40;74.30;;;;;;5101133;28;20302;-65
2022/02/19 04:22:25;;;;;;;6.45;3.80;;;9.40;75.50;;;;;;5106706;28;20239;-65
2022/02/19 04:24:53;;;;;;;6.20;3.13;;;9.40;75.10;;;;;;5106526;28;20219;-65
2022/02/19 04:27:20;;;;;;;7.13;3.83;;;9.50;75.60;;;;;;5107562;27;20790;-65
2022/02/19 04:29:47;;;;;;;6.70;3.80;;;9.40;75.80;;;;;;5112835;28;20612;-65
2022/02/19 04:32:14;;;;;;;6.43;3.13;;;9.40;78.30;;;;;;5098954;28;20233;-65
2022/02/19 04:34:41;;;;;;;8.45;4.80;;;9.40;79.00;;;;;;5107638;28;20229;-65
2022/02/19 04:37:09;;;;;;;4.32;2.38;;;9.30;80.80;;;;;;5105299;28;20216;-65
2022/02/19 04:39:36;;;;;;;4.70;2.90;;;9.30;81.10;;;;;;5106281;28;20237;-65
2022/02/19 04:42:11;;;;;;;10.98;3.45;;;9.30;83.20;;;;;;5102153;28;20234;-65
2022/02/19 04:44:40;;;;;;;9.00;5.90;;;9.30;82.90;;;;;;5109500;28;20263;-65
2022/02/19 04:47:08;;;;;;;4.82;3.08;;;9.30;85.10;;;;;;5113296;27;20275;-64
2022/02/19 04:49:34;;;;;;;5.78;2.78;;;9.30;85.60;;;;;;5111088;28;20222;-65
2022/02/19 04:52:01;;;;;;;12.75;6.22;;;9.30;86.50;;;;;;5101554;28;20222;-65
2022/02/19 04:54:29;;;;;;;8.43;4.65;;;9.30;85.80;;;;;;5098793;28;20228;-65
2022/02/19 04:56:59;;;;;;;8.25;2.30;;;9.20;86.30;;;;;;5103857;28;20242;-64
2022/02/19 04:59:26;;;;;;;5.05;2.90;;;9.20;86.20;;;;;;5106083;28;20240;-65
2022/02/19 05:01:53;;;;;;;14.60;3.42;;;9.20;86.40;;;;;;5102511;27;20257;-64
2022/02/19 05:04:20;;;;;;;3.88;2.50;;;9.10;86.70;;;;;;5112679;27;20245;-65
2022/02/19 05:06:47;;;;;;;6.53;3.38;;;9.10;87.80;;;;;;5102919;28;20216;-65
2022/02/19 05:09:13;;;;;;;2.35;1.83;;;9.10;87.60;;;;;;5109381;28;20218;-65
2022/02/19 05:11:42;;;;;;;8.18;3.58;;;9.10;88.30;;;;;;5112570;28;20245;-65
2022/02/19 05:14:09;;;;;;;6.25;3.10;;;9.10;88.30;;;;;;5099180;28;20219;-65
2022/02/19 05:16:36;;;;;;;8.85;3.20;;;9.10;88.80;;;;;;5100608;28;20236;-65
2022/02/19 05:19:03;;;;;;;3.25;2.22;;;9.10;89.10;;;;;;5106112;28;20220;-64
2022/02/19 05:21:30;;;;;;;4.95;3.58;;;9.10;88.50;;;;;;5103706;28;20215;-65
2022/02/19 05:23:56;;;;;;;3.92;3.53;;;9.10;89.40;;;;;;5098915;28;20234;-64
2022/02/19 05:26:23;;;;;;;8.02;4.47;;;9.10;89.00;;;;;;5112398;27;20234;-64
2022/02/19 05:28:51;;;;;;;9.23;3.63;;;9.10;89.40;;;;;;5112801;28;20687;-64
2022/02/19 05:31:18;;;;;;;4.70;2.60;;;9.00;90.00;;;;;;5098771;28;20231;-66
2022/02/19 05:33:45;;;;;;;4.35;3.08;;;9.10;89.40;;;;;;5105149;28;20226;-65
2022/02/19 05:36:12;;;;;;;7.38;4.28;;;9.10;89.70;;;;;;5111771;28;20537;-66
2022/02/19 05:38:39;;;;;;;4.93;3.40;;;9.10;90.10;;;;;;5099926;28;20227;-65
2022/02/19 05:41:13;;;;;;;7.30;3.38;;;9.00;89.60;;;;;;5099175;28;20211;-65
2022/02/19 05:43:39;;;;;;;3.50;2.67;;;9.00;90.10;;;;;;5108911;28;20225;-65
2022/02/19 05:46:08;;;;;;;4.90;3.45;;;9.00;90.40;;;;;;5112445;27;20695;-65
2022/02/19 05:48:35;;;;;;;9.13;4.88;;;9.00;90.70;;;;;;5098929;28;20693;-66
2022/02/19 05:51:02;;;;;;;5.05;3.08;;;9.00;90.80;;;;;;5111706;28;20218;-65
2022/02/19 05:53:29;;;;;;;2.95;2.35;;;9.00;90.90;;;;;;5099091;28;20219;-65
2022/02/19 05:55:55;;;;;;;4.72;3.08;;;9.00;90.90;;;;;;5098903;28;20224;-65
2022/02/19 05:58:22;;;;;;;5.05;2.28;;;9.00;91.00;;;;;;5104735;28;20224;-64
2022/02/19 06:00:49;;;;;;;5.13;3.97;;;9.00;91.10;;;;;;5105494;28;20219;-66
2022/02/19 06:03:17;;;;;;;9.63;4.03;;;9.00;91.20;;;;;;5109690;27;20215;-64
2022/02/19 06:05:44;;;;;;;5.03;3.08;;;8.90;91.30;;;;;;5110062;28;20238;-65
2022/02/19 06:08:11;;;;;;;4.47;2.63;;;9.00;91.40;;;;;;5101095;28;20219;-65
2022/02/19 06:10:38;;;;;;;3.47;3.17;;;9.00;91.60;;;;;;5111790;28;20627;-65
2022/02/19 06:13:05;;;;;;;3.40;2.75;;;9.00;91.60;;;;;;5102726;28;20228;-65
2022/02/19 06:15:32;;;;;;;5.05;3.63;;;9.00;91.90;;;;;;5105224;28;20234;-65
2022/02/19 06:17:59;;;;;;;5.05;3.15;;;8.90;92.10;;;;;;5101848;28;20223;-65
2022/02/19 06:20:27;;;;;;;3.40;2.50;;;8.90;92.20;;;;;;5101786;28;20231;-65
2022/02/19 06:22:54;;;;;;;6.50;2.20;;;8.80;92.50;;;;;;5116185;27;20221;-64
2022/02/19 06:25:21;;;;;;;5.18;4.20;;;8.80;92.80;;;;;;5102696;28;20234;-65
2022/02/19 06:27:48;;;;;;;5.85;3.33;;;8.80;92.80;;;;;;5115438;27;20214;-64
2022/02/19 06:30:15;;;;;;;8.25;3.25;;;8.80;93.00;;;;;;5111302;28;20674;-64
2022/02/19 06:32:42;;;;;;;5.68;2.30;;;8.70;92.90;;;;;;5100815;28;20223;-64
2022/02/19 06:35:09;;;;;;;5.65;3.35;;;8.70;93.20;;;;;;5113815;27;20243;-65
2022/02/19 06:37:43;;;;;;;4.10;2.10;;;8.70;93.40;;;;;;5103227;28;20238;-64
2022/02/19 06:40:12;;;;;;;5.15;3.30;;;8.70;93.80;;;;;;5115228;27;20238;-65
2022/02/19 06:42:40;;;;;;;5.30;2.80;;;8.70;93.40;;;;;;5115033;27;20302;-65
2022/02/19 06:45:08;;;;;;;5.85;2.65;;;8.80;93.50;;;;;;5108550;28;20219;-65
2022/02/19 06:47:36;;;;;;;4.10;2.00;;;8.80;93.20;;;;;;5115114;27;20222;-65
2022/02/19 06:50:04;;;;;;;9.35;4.25;;;8.70;93.40;;;;;;5103721;28;20281;-65
2022/02/19 06:52:31;;;;;;;3.90;2.35;;;8.70;93.50;;;;;;5108254;28;20238;-66
2022/02/19 06:54:59;;;;;;;4.95;2.10;;;8.70;93.50;;;;;;5107273;28;20223;-65
2022/02/19 06:57:26;;;;;;;4.32;2.13;;;8.80;93.70;;;;;;5101236;28;20223;-65
2022/02/19 06:59:53;;;;;;;5.45;3.05;;;8.70;93.90;;;;;;5101829;27;20224;-65
2022/02/19 07:02:20;;;;;;;7.38;2.70;;;8.70;94.10;;;;;;5108317;28;20233;-65
2022/02/19 07:04:48;;;;;;;5.75;2.10;;;8.70;94.00;;;;;;5107676;27;20230;-65
2022/02/19 07:07:14;;;;;;;8.73;5.05;;;8.70;94.10;;;;;;5102021;28;20233;-65
2022/02/19 07:09:42;;;;;;;7.28;3.75;;;8.70;94.40;;;;;;5111108;27;20840;-65
2022/02/19 07:12:11;;;;;;;2.85;1.80;;;8.60;94.60;;;;;;5115163;28;20227;-65
2022/02/19 07:14:38;;;;;;;1.60;1.50;;;8.50;94.60;;;;;;5100721;28;20232;-65
2022/02/19 07:17:05;;;;;;;2.55;1.60;;;8.60;94.80;;;;;;5106525;27;20223;-65
2022/02/19 07:19:32;;;;;;;2.80;1.95;;;8.60;95.10;;;;;;5109454;27;20563;-64
2022/02/19 07:21:59;;;;;;;2.45;1.92;;;8.70;95.20;;;;;;5114503;27;20303;-65
2022/02/19 07:24:26;;;;;;;2.25;1.35;;;8.60;95.80;;;;;;5114541;28;20239;-66
2022/02/19 07:26:53;;;;;;;4.10;2.65;;;8.70;95.90;;;;;;5114469;27;20215;-64
2022/02/19 07:29:22;;;;;;;3.80;2.13;;;8.70;95.70;;;;;;5114870;28;20223;-68
2022/02/19 07:31:49;;;;;;;3.22;2.08;;;8.80;95.70;;;;;;5113642;28;20233;-66
2022/02/19 07:34:16;;;;;;;3.78;2.67;;;8.80;95.40;;;;;;5114747;28;20215;-65
2022/02/19 07:36:43;;;;;;;3.92;2.05;;;8.80;95.30;;;;;;5114243;27;20238;-65
2022/02/19 07:39:11;;;;;;;3.13;1.90;;;8.70;95.40;;;;;;5114686;28;20232;-65
2022/02/19 07:41:39;;;;;;;3.75;2.10;;;8.70;95.60;;;;;;5114390;28;20619;-67
2022/02/19 07:44:07;;;;;;;4.35;2.30;;;8.70;95.70;;;;;;5114617;28;20229;-65
2022/02/19 07:46:35;;;;;;;3.22;1.83;;;8.60;95.70;;;;;;5114215;27;20223;-66
2022/02/19 07:58:18;;;;;;;4.85;1.95;;;8.60;95.50;;;;;;5114744;28;20680;-65
2022/02/19 08:00:04;;;;;;;4.93;2.88;;;8.50;95.90;;;;;;5114250;27;20562;-63
2022/02/19 08:02:33;;;;;;;2.95;1.40;;;8.50;96.00;;;;;;5114277;28;20315;-63
2022/02/19 08:05:00;;;;;;;2.28;1.55;;;8.50;95.90;;;;;;5113315;27;20218;-65
2022/02/19 08:07:27;;;;;;;7.03;2.40;;;8.60;96.30;;;;;;5114350;27;20223;-65
2022/02/19 08:09:53;;;;;;;3.05;1.85;;;8.60;96.40;;;;;;5113576;28;20681;-65
2022/02/19 08:12:20;;;;;;;5.85;3.20;;;8.60;96.30;;;;;;5114152;28;20227;-64
2022/02/19 08:14:47;;;;;;;2.83;2.20;;;8.70;96.10;;;;;;5113723;28;20712;-66
2022/02/19 08:17:14;;;;;;;4.28;1.40;;;8.70;96.10;;;;;;5113916;28;20223;-66
2022/02/19 08:19:42;;;;;;;3.63;1.88;;;8.80;95.90;;;;;;5113456;28;20684;-63
2022/02/19 08:22:09;;;;;;;4.55;2.80;;;8.80;95.80;;;;;;5113822;28;20226;-65
2022/02/19 08:24:36;;;;;;;5.18;2.88;;;8.80;95.90;;;;;;5113725;28;20564;-63
2022/02/19 08:27:02;;;;;;;6.07;3.15;;;8.70;95.90;;;;;;5113348;28;20234;-64
2022/02/19 08:29:29;;;;;;;4.85;1.92;;;8.70;95.70;;;;;;5113500;28;20223;-64
2022/02/19 08:31:58;;;;;;;4.40;2.08;;;8.80;95.80;;;;;;5112990;28;20316;-64
2022/02/19 08:34:25;;;;;;;2.55;1.30;;;8.80;95.90;;;;;;5113598;27;20311;-64
2022/02/19 08:36:56;;;;;;;4.05;1.50;;;8.90;95.90;;;;;;5113099;27;20343;-64
2022/02/19 08:39:23;;;;;;;4.88;1.35;;;8.90;96.10;;;;;;5113403;28;20227;-64
2022/02/19 08:41:50;;;;;;;6.82;1.80;;;9.00;96.20;;;;;;5112484;28;20223;-64
2022/02/19 08:44:17;;;;;;;4.88;2.35;;;8.90;96.20;;;;;;5113328;28;20233;-64
2022/02/19 08:46:44;;;;;;;7.82;1.75;;;8.90;96.30;;;;;;5112997;28;20223;-64
2022/02/19 08:49:11;;;;;;;3.40;2.00;;;9.00;96.50;;;;;;5113522;28;20585;-64
2022/02/19 08:51:38;;;;;;;2.00;1.50;;;8.80;96.70;;;;;;5113185;28;20254;-64
2022/02/19 08:54:06;;;;;;;3.55;1.85;;;8.80;97.00;;;;;;5112765;27;20222;-65
2022/02/19 08:56:33;;;;;;;4.90;2.08;;;8.80;97.10;;;;;;5113230;28;20223;-65
2022/02/19 08:58:59;;;;;;;2.97;1.75;;;8.80;97.50;;;;;;5112668;28;20227;-65
2022/02/19 09:01:28;;;;;;;3.47;2.00;;;8.80;97.30;;;;;;5113122;28;20223;-65
2022/02/19 09:03:55;;;;;;;8.57;2.47;;;8.70;97.30;;;;;;5112818;28;20223;-65
2022/02/19 09:06:23;;;;;;;5.35;2.30;;;8.80;97.50;;;;;;5112987;28;20223;-65
2022/02/19 09:08:49;;;;;;;3.47;1.95;;;8.70;97.80;;;;;;5112460;28;20558;-65
2022/02/19 09:11:18;;;;;;;7.25;2.40;;;8.70;98.00;;;;;;5113173;28;20234;-65
2022/02/19 09:13:44;;;;;;;4.53;2.58;;;8.80;98.00;;;;;;5112573;28;20575;-65
2022/02/19 09:16:11;;;;;;;4.03;1.73;;;8.80;98.40;;;;;;5112858;28;20215;-65
2022/02/19 09:18:38;;;;;;;5.25;1.70;;;8.80;98.60;;;;;;5113096;28;20249;-65
2022/02/19 09:21:05;;;;;;;7.13;2.65;;;8.90;98.80;;;;;;5112392;28;20234;-65
2022/02/19 09:23:32;;;;;;;4.03;2.50;;;8.90;98.80;;;;;;5112935;28;20226;-65
2022/02/19 09:25:58;;;;;;;6.40;1.55;;;8.90;98.60;;;;;;5112514;28;20562;-65
2022/02/19 09:28:27;;;;;;;3.78;1.90;;;8.90;98.80;;;;;;5112873;28;20339;-65
2022/02/19 09:30:53;;;;;;;7.18;2.42;;;8.90;98.70;;;;;;5112462;28;20226;-65
2022/02/19 09:33:20;;;;;;;4.53;2.20;;;8.90;98.60;;;;;;5112896;28;20231;-65
2022/02/19 09:35:47;;;;;;;4.35;2.15;;;8.90;98.40;;;;;;5112386;28;20669;-66
2022/02/19 09:38:14;;;;;;;7.43;2.15;;;8.90;98.50;;;;;;5112820;28;20323;-65
2022/02/19 09:40:41;;;;;;;6.82;2.15;;;8.90;99.10;;;;;;5112602;28;20569;-65
2022/02/19 09:43:11;;;;;;;8.50;2.17;;;8.90;99.70;;;;;;5112121;28;20229;-65
2022/02/19 09:45:39;;;;;;;3.38;2.63;;;8.80;99.90;;;;;;5112705;28;20301;-66
2022/02/19 09:48:10;;;;;;;7.35;2.63;;;8.90;99.90;;;;;;5112264;28;20221;-65
2022/02/19 09:50:37;;;;;;;5.55;3.70;;;8.80;99.90;;;;;;5112610;28;20238;-65
2022/02/19 09:53:05;;;;;;;6.63;2.25;;;8.80;99.90;;;;;;5112434;28;20222;-65
2022/02/19 09:55:33;;;;;;;4.35;1.75;;;8.90;99.90;;;;;;5116306;28;20227;-65
2022/02/19 09:58:01;;;;;;;5.38;1.95;;;8.80;99.70;;;;;;5116054;28;20272;-66
2022/02/19 10:00:29;;;;;;;7.22;2.35;;;8.90;99.70;;;;;;5116666;28;20227;-65
2022/02/19 10:02:57;;;;;;;3.95;1.83;;;8.80;99.50;;;;;;5116114;28;20584;-65
2022/02/19 10:05:26;;;;;;;5.72;1.88;;;8.90;99.50;;;;;;5116654;28;20238;-65
2022/02/19 10:08:02;;;;;;;5.55;2.22;;;8.90;99.40;;;;;;5116010;28;20227;-65
2022/02/19 10:10:29;;;;;;;5.45;2.53;;;8.90;99.00;;;;;;5116461;27;20223;-65
2022/02/19 10:12:57;;;;;;;7.10;6.45;;;8.90;98.90;;;;;;5115785;28;20223;-65
2022/02/19 10:15:37;;;;;;;10.10;3.45;;;8.90;99.10;;;;;;5116326;28;20302;-65
2022/02/19 10:18:22;;;;;;;5.40;2.10;;;8.90;98.90;;;;;;5116034;28;20218;-64
2022/02/19 10:20:49;;;;;;;3.20;1.77;;;8.90;98.70;;;;;;5115820;28;20306;-65
2022/02/19 10:23:16;;;;;;;4.03;1.60;;;8.90;98.50;;;;;;5115928;27;20222;-65
2022/02/19 10:25:45;;;;;;;6.10;2.08;;;8.80;98.10;;;;;;5116024;28;20223;-65
2022/02/19 10:28:17;;;;;;;6.25;1.90;;;8.90;98.30;;;;;;5115926;28;20276;-65
2022/02/19 10:30:49;;;;;;;4.47;2.00;;;9.00;98.00;;;;;;5115927;28;20237;-65
2022/02/19 10:33:24;;;;;;;6.13;1.60;;;8.90;97.50;;;;;;5115537;27;20254;-65
2022/02/19 10:35:52;;;;;;;6.22;2.00;;;9.00;97.30;;;;;;5116066;27;20245;-65
2022/02/19 10:38:20;;;;;;;6.57;2.55;;;9.00;96.70;;;;;;5115722;28;20223;-66
2022/02/19 10:40:48;;;;;;;7.63;2.70;;;9.00;96.70;;;;;;5115831;27;20227;-65
2022/02/19 10:43:17;;;;;;;3.75;2.55;;;9.10;96.50;;;;;;5114850;28;20415;-65
2022/02/19 10:45:55;;;;;;;6.18;2.25;;;9.10;96.40;;;;;;5115748;27;20219;-65
2022/02/19 10:48:26;;;;;;;5.30;2.10;;;9.20;95.90;;;;;;5115401;28;21224;-65
2022/02/19 10:50:53;;;;;;;7.15;2.33;;;9.20;96.00;;;;;;5115475;28;20227;-64
2022/02/19 10:53:23;;;;;;;5.07;2.53;;;9.20;95.50;;;;;;5115153;27;20226;-65
2022/02/19 10:55:50;;;;;;;7.10;3.03;;;9.20;95.10;;;;;;5115444;27;20673;-65
2022/02/19 10:58:17;;;;;;;7.50;2.55;;;9.30;95.20;;;;;;5115120;28;20227;-65
2022/02/19 11:00:45;;;;;;;5.82;2.65;;;9.20;94.80;;;;;;5115288;28;20230;-65
2022/02/19 11:03:13;;;;;;;2.15;1.92;;;9.30;95.00;;;;;;5115122;28;20226;-65
2022/02/19 11:05:42;;;;;;;4.70;1.85;;;9.30;94.90;;;;;;5114401;28;20631;-65
2022/02/19 11:08:09;;;;;;;4.55;2.13;;;9.40;94.90;;;;;;5114856;28;20229;-65
2022/02/19 11:10:37;;;;;;;4.65;1.75;;;9.40;94.70;;;;;;5115304;28;20230;-65
2022/02/19 11:13:04;;;;;;;3.95;1.88;;;9.40;94.70;;;;;;5114695;28;20220;-65
2022/02/19 11:15:31;;;;;;;2.60;1.73;;;9.40;94.40;;;;;;5115299;28;20219;-65
2022/02/19 11:17:58;;;;;;;5.82;2.10;;;9.50;94.30;;;;;;5115152;28;20219;-66
2022/02/19 11:20:25;;;;;;;7.50;2.67;;;9.50;94.30;;;;;;5114676;28;21033;-65
2022/02/19 11:22:54;;;;;;;9.63;2.88;;;9.60;94.20;;;;;;5115036;27;20211;-66
2022/02/19 11:25:23;;;;;;;6.78;2.10;;;9.50;94.20;;;;;;5114494;28;20226;-65
2022/02/19 11:27:54;;;;;;;4.80;1.77;;;9.60;94.00;;;;;;5114689;27;20215;-65
2022/02/19 11:30:23;;;;;;;6.70;2.30;;;9.60;94.20;;;;;;5114224;27;20227;-65
2022/02/19 11:32:54;;;;;;;5.75;2.20;;;9.60;93.90;;;;;;5114752;27;20478;-65
2022/02/19 11:35:32;;;;;;;6.32;3.25;;;9.60;93.90;;;;;;5114408;28;20239;-66
2022/02/19 11:38:01;;;;;;;7.28;4.30;;;9.70;93.60;;;;;;5114405;28;20226;-66
2022/02/19 11:40:44;;;;;;;6.65;4.07;;;9.70;93.40;;;;;;5114365;28;20231;-65
2022/02/19 11:43:33;;;;;;;4.32;2.40;;;9.80;93.70;;;;;;5114300;28;20211;-65
2022/02/19 11:46:02;;;;;;;3.22;2.20;;;9.70;93.10;;;;;;5114724;28;20560;-65
2022/02/19 11:48:30;;;;;;;4.45;2.13;;;9.80;93.20;;;;;;5113998;27;20237;-65
2022/02/19 11:51:22;;;;;;;4.95;2.28;;;9.80;92.50;;;;;;5114583;27;20256;-66
2022/02/19 11:53:51;;;;;;;5.03;1.77;;;9.80;92.00;;;;;;5114242;28;20223;-65
2022/02/19 11:56:35;;;;;;;4.43;2.25;;;9.90;91.40;;;;;;5114344;28;20227;-64
2022/02/19 11:59:06;;;;;;;4.40;2.17;;;10.00;90.10;;;;;;5112434;28;20227;-65
2022/02/19 12:01:33;;;;;;;3.30;2.08;;;9.90;90.90;;;;;;5113936;27;20233;-65
2022/02/19 12:04:14;;;;;;;7.53;2.47;;;10.00;90.50;;;;;;5113842;27;20223;-64
2022/02/19 12:06:41;;;;;;;8.05;2.20;;;10.00;89.40;;;;;;5114117;28;20230;-65
2022/02/19 12:09:13;;;;;;;4.88;2.30;;;10.00;89.60;;;;;;5113613;27;20219;-65
2022/02/19 12:12:12;;;;;;;6.53;1.90;;;10.00;88.70;;;;;;5114015;28;20231;-65
2022/02/19 12:15:01;;;;;;;5.97;2.20;;;10.10;88.10;;;;;;5113937;28;20227;-64
2022/02/19 12:17:43;;;;;;;4.65;2.33;;;10.10;88.60;;;;;;5113860;28;20226;-65
2022/02/19 12:20:23;;;;;;;4.18;1.60;;;10.20;88.30;;;;;;5114109;28;20227;-65
2022/02/19 12:22:52;;;;;;;3.13;2.38;;;10.20;88.20;;;;;;5114013;28;20586;-65
2022/02/19 12:25:22;;;;;;;5.80;2.42;;;10.30;87.30;;;;;;5113259;28;20230;-64
2022/02/19 12:28:17;;;;;;;6.45;2.13;;;10.30;86.70;;;;;;5113783;27;20568;-65
2022/02/19 12:30:44;;;;;;;4.88;2.30;;;10.30;86.60;;;;;;5113519;28;20242;-66
2022/02/19 12:33:12;;;;;;;6.00;3.25;;;10.40;86.50;;;;;;5113598;27;20310;-65
2022/02/19 12:35:40;;;;;;;4.15;1.85;;;10.40;85.90;;;;;;5113134;28;20223;-65
2022/02/19 12:38:08;;;;;;;6.45;2.60;;;10.40;86.90;;;;;;5113488;28;20710;-65
2022/02/19 12:40:37;;;;;;;3.75;1.80;;;10.50;86.80;;;;;;5113220;28;20254;-66
2022/02/19 12:43:06;;;;;;;3.90;2.00;;;10.50;85.50;;;;;;5113474;28;20215;-65
2022/02/19 12:45:35;;;;;;;9.13;2.42;;;10.50;85.70;;;;;;5113040;28;20222;-65
2022/02/19 12:48:02;;;;;;;6.50;2.42;;;10.50;85.90;;;;;;5113499;28;20313;-65
2022/02/19 12:50:28;;;;;;;5.60;2.33;;;10.50;85.30;;;;;;5112914;28;20223;-65
2022/02/19 12:52:55;;;;;;;6.22;2.15;;;10.50;84.80;;;;;;5113382;28;20222;-65
2022/02/19 12:55:23;;;;;;;8.00;2.25;;;10.50;84.50;;;;;;5112742;28;20262;-64
2022/02/19 12:57:53;;;;;;;4.70;2.25;;;10.40;84.00;;;;;;5113346;28;20214;-65
2022/02/19 13:00:21;;;;;;;2.65;1.63;;;10.50;84.10;;;;;;5113143;28;20577;-64
2022/02/19 13:02:56;;;;;;;5.78;2.85;;;10.40;83.60;;;;;;5113111;28;20255;-64
2022/02/19 13:05:23;;;;;;;4.80;2.05;;;10.50;83.40;;;;;;5113032;28;20728;-64
2022/02/19 13:07:50;;;;;;;3.65;2.00;;;10.40;83.40;;;;;;5112441;28;20229;-64